createdAt,value
2019-06-20T00:00:48.175Z,49.30
2019-06-20T00:03:16.895Z,51.50
2019-06-20T00:05:45.729Z,53.00
2019-06-20T00:08:14.451Z,53.50
2019-06-20T00:10:43.095Z,53.90
2019-06-20T00:13:11.620Z,55.50
2019-06-20T00:15:40.508Z,55.90
2019-06-20T00:18:09.283Z,56.20
2019-06-20T00:20:37.935Z,56.40
2019-06-20T00:23:06.463Z,57.50
2019-06-20T00:25:34.902Z,58.30
2019-06-20T00:28:03.571Z,59.40
2019-06-20T00:30:32.068Z,61.40
2019-06-20T00:33:00.538Z,61.80
2019-06-20T00:35:28.975Z,63.40
2019-06-20T00:37:57.417Z,64.20
2019-06-20T00:40:25.870Z,65.90
2019-06-20T00:42:54.378Z,65.50
2019-06-20T00:45:22.905Z,65.70
2019-06-20T00:47:51.348Z,64.90
2019-06-20T00:50:19.870Z,66.40
2019-06-20T00:52:48.310Z,66.80
2019-06-20T00:55:16.834Z,66.50
2019-06-20T00:57:45.282Z,65.10
2019-06-20T01:00:14.805Z,65.50
2019-06-20T01:02:43.295Z,66.80
2019-06-20T01:05:12.367Z,68.30
2019-06-20T01:07:40.862Z,67.00
2019-06-20T01:10:10.089Z,66.00
2019-06-20T01:12:38.543Z,67.40
2019-06-20T01:15:08.170Z,67.90
2019-06-20T01:17:37.132Z,66.80
2019-06-20T01:20:08.688Z,65.70
2019-06-20T01:22:37.281Z,65.30
2019-06-20T01:25:29.463Z,65.00
2019-06-20T01:27:57.932Z,65.00
2019-06-20T01:30:26.358Z,65.30
2019-06-20T01:32:54.903Z,66.40
2019-06-20T01:35:23.361Z,67.10
2019-06-20T01:37:51.815Z,68.00
2019-06-20T01:40:20.293Z,69.00
2019-06-20T01:42:48.752Z,69.00
2019-06-20T01:45:17.368Z,69.60
2019-06-20T01:47:45.819Z,69.00
2019-06-20T01:50:14.690Z,67.90
2019-06-20T01:52:43.161Z,67.70
2019-06-20T01:55:11.952Z,67.50
2019-06-20T01:57:40.413Z,66.10
2019-06-20T02:00:10.162Z,65.90
2019-06-20T02:02:38.631Z,66.50
2019-06-20T02:05:07.515Z,66.60
2019-06-20T02:07:35.968Z,66.10
2019-06-20T02:10:06.648Z,65.70
2019-06-20T02:12:35.103Z,66.50
2019-06-20T02:15:04.201Z,66.40
2019-06-20T02:17:32.664Z,66.30
2019-06-20T02:20:01.125Z,66.30
2019-06-20T02:22:29.663Z,65.70
2019-06-20T02:24:58.096Z,64.60
2019-06-20T02:27:26.556Z,64.80
2019-06-20T02:29:55.075Z,64.20
2019-06-20T02:32:23.568Z,64.00
2019-06-20T02:34:51.998Z,65.00
2019-06-20T02:37:20.459Z,64.40
2019-06-20T02:39:48.918Z,65.80
2019-06-20T02:42:17.396Z,65.70
2019-06-20T02:44:45.836Z,65.20
2019-06-20T02:47:14.460Z,66.10
2019-06-20T02:49:42.937Z,66.00
2019-06-20T02:52:11.483Z,66.30
2019-06-20T02:54:39.934Z,66.50
2019-06-20T02:57:08.662Z,66.60
2019-06-20T02:59:37.095Z,66.40
2019-06-20T03:02:05.626Z,66.30
2019-06-20T03:04:34.132Z,66.20
2019-06-20T03:07:02.612Z,66.30
2019-06-20T03:09:32.471Z,66.10
2019-06-20T03:12:01.080Z,65.90
2019-06-20T03:14:41.792Z,65.20
2019-06-20T03:16:59.810Z,65.30
2019-06-20T03:19:28.574Z,66.40
2019-06-20T03:21:57.040Z,66.30
2019-06-20T03:24:25.495Z,67.40
2019-06-20T03:26:53.987Z,67.40
2019-06-20T03:29:22.476Z,66.70
2019-06-20T03:31:50.993Z,66.90
2019-06-20T03:34:19.513Z,67.60
2019-06-20T03:36:48.000Z,67.00
2019-06-20T03:39:16.471Z,66.70
2019-06-20T03:41:44.921Z,66.20
2019-06-20T03:44:13.431Z,66.00
2019-06-20T03:46:41.890Z,65.90
2019-06-20T03:49:10.431Z,65.20
2019-06-20T03:51:38.956Z,64.50
2019-06-20T03:54:07.520Z,64.90
2019-06-20T03:56:35.968Z,64.80
2019-06-20T03:59:04.823Z,64.40
2019-06-20T04:01:33.266Z,65.60
2019-06-20T04:04:01.723Z,66.10
2019-06-20T04:06:30.347Z,66.10
2019-06-20T04:08:58.821Z,65.00
2019-06-20T04:11:27.264Z,64.40
2019-06-20T04:13:55.714Z,64.30
2019-06-20T04:16:24.160Z,64.70
2019-06-20T04:18:52.631Z,64.30
2019-06-20T04:21:21.086Z,64.50
2019-06-20T04:23:49.720Z,65.00
2019-06-20T04:26:18.183Z,65.50
2019-06-20T04:28:46.655Z,64.70
2019-06-20T04:31:15.279Z,64.50
2019-06-20T04:33:43.726Z,64.70
2019-06-20T04:36:12.174Z,64.00
2019-06-20T04:38:40.650Z,64.20
2019-06-20T04:41:11.613Z,64.10
2019-06-20T04:43:40.043Z,64.30
2019-06-20T04:46:15.655Z,64.20
2019-06-20T04:48:44.126Z,63.90
2019-06-20T04:51:12.689Z,64.20
2019-06-20T04:53:41.124Z,63.50
2019-06-20T04:56:09.594Z,63.50
2019-06-20T04:58:38.121Z,63.30
2019-06-20T05:01:08.379Z,63.90
2019-06-20T05:03:36.879Z,63.70
2019-06-20T05:06:05.364Z,63.20
2019-06-20T05:08:33.875Z,62.60
2019-06-20T05:11:02.432Z,62.20
2019-06-20T05:13:31.054Z,62.50
2019-06-20T05:16:01.037Z,63.40
2019-06-20T05:18:29.529Z,63.50
2019-06-20T05:20:57.991Z,62.60
2019-06-20T05:23:26.455Z,63.10
2019-06-20T05:25:54.924Z,64.00
2019-06-20T05:28:23.725Z,63.10
2019-06-20T05:30:52.278Z,63.70
2019-06-20T05:33:20.750Z,63.30
2019-06-20T05:35:49.201Z,63.60
2019-06-20T05:38:17.733Z,63.80
2019-06-20T05:40:46.168Z,62.20
2019-06-20T05:43:14.631Z,62.10
2019-06-20T05:45:46.181Z,61.70
2019-06-20T05:48:13.302Z,62.50
2019-06-20T05:50:42.280Z,62.80
2019-06-20T05:53:10.749Z,62.30
2019-06-20T05:55:39.263Z,62.20
2019-06-20T05:58:08.147Z,60.90
2019-06-20T06:00:36.610Z,60.60
2019-06-20T06:03:07.171Z,60.40
2019-06-20T06:05:35.547Z,60.80
2019-06-20T06:08:04.037Z,60.90
2019-06-20T06:10:32.581Z,60.00
2019-06-20T06:13:01.119Z,59.80
2019-06-20T06:15:29.600Z,59.00
2019-06-20T06:17:58.047Z,59.60
2019-06-20T06:20:30.064Z,59.20
2019-06-20T06:22:58.662Z,59.40
2019-06-20T06:25:27.130Z,59.40
2019-06-20T06:27:55.783Z,59.20
2019-06-20T06:30:24.384Z,59.10
2019-06-20T06:32:52.837Z,58.70
2019-06-20T06:35:21.942Z,58.60
2019-06-20T06:37:50.723Z,58.60
2019-06-20T06:40:19.707Z,58.50
2019-06-20T06:42:48.437Z,58.50
2019-06-20T06:45:17.242Z,58.70
2019-06-20T06:47:46.458Z,58.30
2019-06-20T06:50:15.542Z,57.90
2019-06-20T06:52:44.342Z,57.40
2019-06-20T06:55:13.142Z,57.50
2019-06-20T06:57:41.591Z,56.40
2019-06-20T07:00:14.972Z,57.30
2019-06-20T07:02:43.485Z,56.60
2019-06-20T07:05:12.380Z,57.00
2019-06-20T07:07:40.835Z,57.40
2019-06-20T07:10:11.459Z,58.20
2019-06-20T07:12:39.977Z,58.00
2019-06-20T07:15:09.645Z,57.20
2019-06-20T07:17:38.243Z,56.90
2019-06-20T07:20:07.747Z,57.10
2019-06-20T07:22:36.700Z,56.70
2019-06-20T07:25:08.554Z,56.50
2019-06-20T07:27:56.347Z,56.90
2019-06-20T07:30:25.035Z,55.90
2019-06-20T07:32:53.483Z,56.30
2019-06-20T07:35:22.006Z,55.90
2019-06-20T07:37:50.450Z,55.70
2019-06-20T07:40:19.136Z,55.70
2019-06-20T07:42:47.666Z,56.30
2019-06-20T07:45:19.490Z,56.00
2019-06-20T07:47:47.996Z,56.30
2019-06-20T07:50:16.594Z,55.00
2019-06-20T07:53:00.942Z,54.00
2019-06-20T07:55:15.447Z,55.00
2019-06-20T07:57:44.415Z,54.50
2019-06-20T08:00:13.870Z,53.40
2019-06-20T08:02:42.594Z,52.70
2019-06-20T08:05:13.095Z,53.70
2019-06-20T08:07:41.660Z,52.50
2019-06-20T08:10:15.395Z,53.20
2019-06-20T08:12:43.982Z,53.30
2019-06-20T08:15:15.400Z,53.70
2019-06-20T08:17:44.018Z,53.30
2019-06-20T08:20:12.891Z,53.70
2019-06-20T08:22:41.626Z,52.20
2019-06-20T08:25:10.732Z,54.00
2019-06-20T08:27:52.968Z,51.60
2019-06-20T08:30:29.711Z,49.40
2019-06-20T08:33:01.179Z,47.80
2019-06-20T08:35:31.003Z,47.80
2019-06-20T08:38:01.510Z,46.10
2019-06-20T08:40:33.150Z,45.50
2019-06-20T08:43:02.256Z,46.80
2019-06-20T08:45:33.019Z,46.60
2019-06-20T08:48:02.699Z,47.50
2019-06-20T08:50:32.872Z,47.80
2019-06-20T08:53:01.767Z,46.40
2019-06-20T08:55:30.809Z,44.90
2019-06-20T08:58:01.486Z,43.90
2019-06-20T09:00:31.154Z,43.80
2019-06-20T09:03:00.426Z,42.70
2019-06-20T09:05:31.166Z,41.50
2019-06-20T09:10:40.860Z,41.90
2019-06-20T09:13:10.887Z,41.50
2019-06-20T09:15:41.939Z,42.00
2019-06-20T09:18:10.671Z,42.90
2019-06-20T09:20:39.659Z,44.10
2019-06-20T09:23:08.291Z,42.40
2019-06-20T09:25:36.977Z,42.70
2019-06-20T09:28:06.483Z,40.80
2019-06-20T09:30:35.871Z,38.70
2019-06-20T09:33:04.745Z,41.60
2019-06-20T09:35:33.322Z,40.20
2019-06-20T09:38:01.923Z,38.00
2019-06-20T09:40:31.671Z,37.30
2019-06-20T09:43:00.385Z,37.80
2019-06-20T09:45:29.136Z,35.90
2019-06-20T09:47:58.272Z,35.40
2019-06-20T09:50:26.983Z,36.30
2019-06-20T09:52:56.584Z,36.20
2019-06-20T09:55:25.866Z,33.50
2019-06-20T09:57:55.760Z,34.20
2019-06-20T10:00:26.577Z,33.90
2019-06-20T10:02:56.351Z,34.40
2019-06-20T10:05:25.492Z,35.20
2019-06-20T10:07:54.536Z,37.00
2019-06-20T10:10:26.343Z,36.50
2019-06-20T10:12:55.875Z,37.20
2019-06-20T10:15:32.369Z,38.20
2019-06-20T10:18:01.097Z,38.40
2019-06-20T10:20:29.698Z,38.30
2019-06-20T10:22:58.379Z,39.60
2019-06-20T10:25:26.844Z,42.10
2019-06-20T10:27:55.291Z,44.70
2019-06-20T10:30:26.266Z,39.30
2019-06-20T10:32:55.139Z,41.00
2019-06-20T10:35:24.068Z,38.40
2019-06-20T10:37:53.100Z,35.10
2019-06-20T10:40:22.560Z,33.30
2019-06-20T10:42:52.942Z,34.60
2019-06-20T10:45:24.291Z,34.60
2019-06-20T10:47:53.466Z,35.30
2019-06-20T10:50:22.288Z,35.20
2019-06-20T10:52:51.888Z,36.30
2019-06-20T10:55:22.423Z,35.60
2019-06-20T10:57:51.862Z,36.30
2019-06-20T11:00:30.797Z,37.30
2019-06-20T11:02:52.528Z,37.60
2019-06-20T11:05:21.324Z,38.90
2019-06-20T11:07:50.245Z,40.20
2019-06-20T11:10:19.655Z,41.60
2019-06-20T11:12:54.924Z,41.80
2019-06-20T11:15:19.529Z,43.30
2019-06-20T11:17:48.451Z,43.20
2019-06-20T11:20:17.654Z,43.60
2019-06-20T11:22:47.586Z,44.30
2019-06-20T11:25:19.142Z,45.20
2019-06-20T11:27:47.390Z,44.20
2019-06-20T11:30:25.170Z,44.90
2019-06-20T11:32:53.768Z,45.60
2019-06-20T11:35:22.272Z,44.70
2019-06-20T11:37:50.817Z,44.10
2019-06-20T11:40:19.827Z,43.30
2019-06-20T11:42:48.442Z,41.70
2019-06-20T11:45:17.660Z,40.20
2019-06-20T11:47:47.342Z,39.50
2019-06-20T11:50:18.158Z,39.80
2019-06-20T11:52:46.750Z,40.40
2019-06-20T11:55:15.844Z,40.40
2019-06-20T11:57:44.503Z,39.50
2019-06-20T12:00:14.283Z,41.50
2019-06-20T12:02:44.066Z,42.10
2019-06-20T12:05:14.754Z,37.70
2019-06-20T12:07:45.327Z,36.50
2019-06-20T12:10:14.346Z,34.30
2019-06-20T12:12:42.822Z,32.20
2019-06-20T12:15:12.002Z,32.40
2019-06-20T12:17:41.765Z,33.10
2019-06-20T12:20:12.449Z,31.10
2019-06-20T12:22:41.754Z,30.10
2019-06-20T12:25:13.086Z,30.40
2019-06-20T12:27:42.973Z,31.20
2019-06-20T12:30:13.743Z,32.90
2019-06-20T12:32:42.528Z,34.90
2019-06-20T12:35:11.846Z,36.70
2019-06-20T12:37:42.691Z,38.80
2019-06-20T12:40:13.396Z,39.80
2019-06-20T12:42:43.190Z,40.40
2019-06-20T12:45:14.686Z,40.80
2019-06-20T12:47:43.788Z,43.10
2019-06-20T12:50:13.221Z,43.30
2019-06-20T12:52:42.587Z,44.50
2019-06-20T12:55:12.278Z,44.20
2019-06-20T12:57:42.120Z,43.60
2019-06-20T13:00:12.116Z,43.20
2019-06-20T13:02:41.939Z,43.50
2019-06-20T13:05:11.347Z,44.30
2019-06-20T13:07:40.689Z,44.90
2019-06-20T13:10:10.368Z,46.80
2019-06-20T13:12:40.685Z,46.00
2019-06-20T13:15:09.848Z,45.50
2019-06-20T13:17:39.841Z,44.30
2019-06-20T13:20:09.178Z,43.50
2019-06-20T13:22:39.075Z,45.00
2019-06-20T13:25:08.795Z,41.70
2019-06-20T13:27:38.117Z,43.60
2019-06-20T13:30:08.543Z,41.50
2019-06-20T13:32:38.446Z,45.50
2019-06-20T13:35:08.773Z,41.90
2019-06-20T13:37:38.235Z,41.10
2019-06-20T13:40:09.870Z,40.10
2019-06-20T13:42:39.037Z,40.40
2019-06-20T13:45:14.737Z,41.80
2019-06-20T13:47:43.346Z,41.70
2019-06-20T13:50:12.177Z,40.80
2019-06-20T13:52:43.559Z,40.40
2019-06-20T13:55:11.118Z,42.30
2019-06-20T13:57:41.182Z,40.50
2019-06-20T14:00:11.291Z,40.90
2019-06-20T14:02:41.400Z,42.40
2019-06-20T14:05:11.670Z,43.40
2019-06-20T14:07:43.783Z,44.90
2019-06-20T14:10:11.180Z,45.20
2019-06-20T14:12:40.085Z,45.50
2019-06-20T14:15:10.515Z,45.90
2019-06-20T14:17:41.419Z,46.70
2019-06-20T14:20:10.929Z,46.70
2019-06-20T14:22:39.403Z,46.90
2019-06-20T14:25:08.916Z,46.20
2019-06-20T14:27:37.365Z,45.60
2019-06-20T14:30:08.860Z,46.10
2019-06-20T14:32:37.315Z,46.10
2019-06-20T14:35:06.281Z,45.60
2019-06-20T14:37:34.805Z,46.30
2019-06-20T14:40:05.170Z,46.70
2019-06-20T14:42:33.627Z,47.10
2019-06-20T14:45:02.152Z,47.30
2019-06-20T14:47:30.638Z,48.20
2019-06-20T14:49:59.058Z,48.80
2019-06-20T14:52:27.541Z,48.60
2019-06-20T14:54:55.995Z,47.50
2019-06-20T14:57:24.523Z,48.40
2019-06-20T14:59:54.344Z,47.90
2019-06-20T15:02:34.616Z,47.70
2019-06-20T15:04:54.359Z,48.10
2019-06-20T15:07:23.100Z,47.80
2019-06-20T15:09:53.134Z,49.10
2019-06-20T15:12:21.760Z,48.30
2019-06-20T15:14:51.429Z,48.40
2019-06-20T15:17:20.078Z,49.40
2019-06-20T15:19:49.457Z,49.50
2019-06-20T15:22:17.982Z,49.80
2019-06-20T15:24:48.565Z,50.80
2019-06-20T15:27:16.846Z,52.60
2019-06-20T15:29:47.054Z,52.90
2019-06-20T15:32:15.498Z,53.30
2019-06-20T15:34:44.008Z,52.00
2019-06-20T15:37:12.841Z,52.30
2019-06-20T15:39:41.294Z,52.30
2019-06-20T15:42:09.795Z,51.40
2019-06-20T15:44:38.255Z,51.90
2019-06-20T15:47:06.722Z,51.30
2019-06-20T15:49:35.163Z,50.90
2019-06-20T15:52:03.636Z,48.70
2019-06-20T15:54:32.058Z,49.30
2019-06-20T15:57:00.826Z,51.30
2019-06-20T15:59:29.325Z,47.70
2019-06-20T16:01:57.792Z,47.20
2019-06-20T16:04:26.280Z,43.00
2019-06-20T16:06:54.977Z,41.80
2019-06-20T16:09:23.427Z,40.40
2019-06-20T16:11:51.871Z,40.30
2019-06-20T16:14:20.360Z,38.90
2019-06-20T16:16:48.806Z,39.20
2019-06-20T16:19:17.664Z,38.10
2019-06-20T16:21:46.591Z,38.70
2019-06-20T16:24:15.055Z,39.10
2019-06-20T16:26:43.519Z,38.40
2019-06-20T16:29:11.972Z,39.80
2019-06-20T16:31:40.699Z,40.30
2019-06-20T16:34:09.510Z,42.00
2019-06-20T16:36:37.967Z,43.00
2019-06-20T16:39:08.247Z,43.50
2019-06-20T16:41:37.130Z,45.00
2019-06-20T16:44:05.951Z,44.30
2019-06-20T16:46:34.428Z,45.40
2019-06-20T16:49:02.890Z,46.20
2019-06-20T16:51:31.414Z,47.40
2019-06-20T16:53:59.931Z,48.60
2019-06-20T16:56:28.550Z,49.70
2019-06-20T16:58:56.988Z,50.10
2019-06-20T17:01:25.734Z,50.40
2019-06-20T17:03:54.179Z,50.50
2019-06-20T17:06:22.652Z,50.40
2019-06-20T17:08:51.257Z,50.60
2019-06-20T17:11:19.721Z,49.90
2019-06-20T17:13:48.243Z,50.80
2019-06-20T17:16:16.712Z,51.40
2019-06-20T17:18:45.307Z,51.50
2019-06-20T17:21:13.818Z,52.00
2019-06-20T17:23:42.553Z,52.20
2019-06-20T17:26:11.424Z,52.20
2019-06-20T17:28:40.047Z,53.00
2019-06-20T17:31:08.559Z,51.80
2019-06-20T17:33:37.022Z,51.20
2019-06-20T17:36:17.865Z,51.80
2019-06-20T17:38:35.834Z,52.50
2019-06-20T17:41:04.412Z,52.10
2019-06-20T17:43:32.879Z,53.50
2019-06-20T17:46:01.550Z,53.50
2019-06-20T17:48:30.010Z,53.50
2019-06-20T17:50:58.465Z,53.30
2019-06-20T17:53:26.991Z,54.00
2019-06-20T17:55:55.935Z,54.60
2019-06-20T17:58:24.407Z,56.00
2019-06-20T18:00:52.844Z,56.40
2019-06-20T18:03:21.310Z,57.40
2019-06-20T18:05:49.747Z,57.40
2019-06-20T18:08:18.316Z,57.60
2019-06-20T18:10:46.880Z,57.70
2019-06-20T18:13:15.343Z,57.80
2019-06-20T18:15:44.164Z,57.00
2019-06-20T18:18:12.791Z,57.50
2019-06-20T18:20:41.228Z,57.80
2019-06-20T18:23:09.696Z,57.50
2019-06-20T18:25:38.215Z,58.40
2019-06-20T18:28:06.751Z,57.80
2019-06-20T18:30:43.514Z,58.30
2019-06-20T18:33:12.987Z,58.80
2019-06-20T18:35:41.565Z,59.60
2019-06-20T18:38:10.031Z,59.10
2019-06-20T18:40:38.818Z,58.90
2019-06-20T18:43:07.339Z,58.50
2019-06-20T18:45:36.019Z,58.60
2019-06-20T18:48:05.384Z,58.50
2019-06-20T18:50:33.913Z,58.60
2019-06-20T18:53:02.359Z,58.40
2019-06-20T18:55:30.817Z,57.70
2019-06-20T18:57:59.255Z,57.20
2019-06-20T19:00:34.643Z,57.00
2019-06-20T19:02:58.148Z,57.00
2019-06-20T19:05:26.688Z,56.80
2019-06-20T19:07:55.144Z,56.80
2019-06-20T19:10:24.031Z,56.70
2019-06-20T19:12:52.479Z,56.80
2019-06-20T19:15:21.675Z,56.90
2019-06-20T19:17:50.108Z,56.10
2019-06-20T19:20:18.656Z,55.20
2019-06-20T19:22:47.167Z,55.40
2019-06-20T19:25:16.775Z,56.00
2019-06-20T19:27:46.900Z,56.50
2019-06-20T19:30:16.729Z,57.00
2019-06-20T19:32:45.237Z,57.00
2019-06-20T19:35:14.318Z,57.10
2019-06-20T19:37:42.755Z,57.00
2019-06-20T19:40:12.159Z,56.60
2019-06-20T19:42:41.010Z,57.30
2019-06-20T19:45:11.569Z,58.00
2019-06-20T19:47:40.677Z,57.80
2019-06-20T19:50:09.695Z,58.00
2019-06-20T19:52:38.688Z,58.20
2019-06-20T19:55:07.531Z,58.10
2019-06-20T19:57:35.959Z,57.90
2019-06-20T20:00:06.607Z,57.40
2019-06-20T20:02:35.134Z,57.80
2019-06-20T20:05:18.644Z,58.10
2019-06-20T20:07:38.725Z,57.20
2019-06-20T20:10:08.708Z,56.70
2019-06-20T20:12:37.247Z,56.70
2019-06-20T20:15:08.893Z,57.00
2019-06-20T20:17:37.618Z,56.60
2019-06-20T20:20:09.119Z,56.30
2019-06-20T20:22:37.647Z,56.60
2019-06-20T20:25:08.118Z,56.60
2019-06-20T20:27:36.584Z,56.30
2019-06-20T20:30:11.977Z,56.10
2019-06-20T20:32:40.507Z,55.60
2019-06-20T20:35:09.379Z,55.80
2019-06-20T20:37:37.896Z,55.80
2019-06-20T20:40:08.312Z,55.60
2019-06-20T20:42:36.900Z,55.50
2019-06-20T20:45:06.483Z,55.70
2019-06-20T20:47:34.967Z,55.70
2019-06-20T20:50:07.583Z,56.00
2019-06-20T20:52:36.119Z,55.60
2019-06-20T20:55:09.838Z,56.30
2019-06-20T20:57:38.380Z,56.60
2019-06-20T21:00:15.380Z,56.40
2019-06-20T21:02:43.885Z,56.40
2019-06-20T21:05:12.770Z,56.90
2019-06-20T21:07:41.304Z,57.00
2019-06-20T21:10:11.683Z,56.50
2019-06-20T21:12:40.426Z,56.40
2019-06-20T21:15:09.127Z,56.30
2019-06-20T21:17:37.591Z,56.70
2019-06-20T21:20:07.600Z,56.70
2019-06-20T21:22:36.143Z,56.80
2019-06-20T21:25:07.921Z,56.80
2019-06-20T21:27:36.410Z,56.70
2019-06-20T21:30:07.859Z,57.10
2019-06-20T21:32:36.332Z,56.90
2019-06-20T21:35:07.579Z,57.00
2019-06-20T21:37:36.502Z,57.30
2019-06-20T21:40:08.521Z,57.50
2019-06-20T21:42:37.436Z,57.30
2019-06-20T21:45:08.573Z,57.00
2019-06-20T21:47:37.146Z,57.70
2019-06-20T21:50:06.535Z,57.00
2019-06-20T21:52:35.006Z,57.40
2019-06-20T21:55:05.156Z,57.60
2019-06-20T21:57:33.655Z,58.00
2019-06-20T22:00:02.569Z,58.00
2019-06-20T22:02:31.020Z,58.20
2019-06-20T22:04:59.595Z,58.20
2019-06-20T22:07:28.118Z,58.30
2019-06-20T22:09:56.559Z,58.20
2019-06-20T22:12:25.332Z,58.10
2019-06-20T22:14:53.787Z,58.30
2019-06-20T22:17:22.290Z,57.90
2019-06-20T22:19:50.755Z,57.80
2019-06-20T22:22:19.229Z,57.70
2019-06-20T22:24:48.115Z,58.00
2019-06-20T22:27:16.619Z,57.60
2019-06-20T22:29:45.063Z,57.70
2019-06-20T22:32:13.502Z,57.50
2019-06-20T22:34:42.369Z,57.90
2019-06-20T22:37:11.156Z,57.60
2019-06-20T22:39:39.619Z,57.80
2019-06-20T22:42:08.142Z,58.20
2019-06-20T22:44:36.675Z,58.10
2019-06-20T22:47:05.107Z,58.30
2019-06-20T22:49:33.692Z,58.30
2019-06-20T22:52:02.331Z,58.60
2019-06-20T22:54:31.071Z,58.70
2019-06-20T22:56:59.535Z,58.50
2019-06-20T22:59:27.995Z,58.20
2019-06-20T23:01:56.458Z,58.10
2019-06-20T23:04:25.005Z,57.20
2019-06-20T23:06:56.633Z,57.40
2019-06-20T23:09:26.995Z,57.40
2019-06-20T23:11:53.838Z,57.00
2019-06-20T23:14:22.333Z,57.00
2019-06-20T23:16:50.853Z,57.20
2019-06-20T23:19:19.318Z,57.40
2019-06-20T23:21:47.786Z,58.00
2019-06-20T23:24:16.255Z,58.20
2019-06-20T23:26:44.772Z,58.30
2019-06-20T23:29:22.294Z,58.30
2019-06-20T23:31:52.497Z,58.50
2019-06-20T23:34:21.272Z,58.60
2019-06-20T23:36:49.836Z,58.20
2019-06-20T23:39:18.334Z,58.20
2019-06-20T23:41:46.766Z,58.00
2019-06-20T23:44:15.232Z,57.60
2019-06-20T23:46:43.829Z,57.60
2019-06-20T23:49:12.325Z,57.80
2019-06-20T23:51:54.684Z,57.90
2019-06-20T23:54:23.626Z,58.20
2019-06-20T23:56:52.114Z,58.30
2019-06-20T23:59:20.656Z,58.10
